Time;durP1;ratioP1;P1;durP2;ratioP2;P2;SDS_P1;SDS_P2;PMS_P1;PMS_P2;Temp;Humidity;BMP_temperature;BMP_pressure;BME280_temperature;BME280_humidity;BME280_pressure;Samples;Min_cycle;Max_cycle;Signal;HPM_P1;HPM_P2
2022/01/16 00:00:23;;;;;;;46.63;27.85;;;3.90;99.90;;;;;;6078928;23;20089;-88
2022/01/16 00:05:49;;;;;;;54.50;28.00;;;3.90;99.90;;;;;;6136670;23;20020;-88
2022/01/16 00:08:17;;;;;;;51.83;28.55;;;3.90;99.90;;;;;;6116920;23;20006;-89
2022/01/16 00:10:59;;;;;;;50.47;28.85;;;3.80;99.90;;;;;;6101332;23;20425;-89
2022/01/16 00:13:45;;;;;;;;;;;;;;;;;;;;;
2022/01/16 00:16:16;;;;;;;47.55;27.13;;;3.80;99.90;;;;;;6103312;23;20085;-88
2022/01/16 00:18:49;;;;;;;51.65;29.85;;;3.80;99.90;;;;;;6101174;23;20026;-87
2022/01/16 00:21:30;;;;;;;46.53;26.20;;;3.80;99.90;;;;;;6101314;23;20259;-89
2022/01/16 00:24:06;;;;;;;48.80;28.73;;;3.80;99.90;;;;;;6101186;23;20037;-88
2022/01/16 00:29:50;;;;;;;48.80;28.17;;;3.80;99.90;;;;;;6103093;23;20010;-88
2022/01/16 00:35:19;;;;;;;53.47;31.48;;;3.80;99.90;;;;;;6117884;23;20022;-88
2022/01/16 00:38:07;;;;;;;53.08;29.50;;;3.80;99.90;;;;;;6106132;23;20022;-87
2022/01/16 00:43:39;;;;;;;;;;;;;;;;;;;;;
2022/01/16 00:46:10;;;;;;;56.63;31.63;;;3.70;99.90;;;;;;6105010;23;20077;-88
2022/01/16 00:48:48;;;;;;;56.95;31.65;;;3.70;99.90;;;;;;6079871;23;20020;-88
2022/01/16 00:51:27;;;;;;;56.58;30.75;;;3.70;99.90;;;;;;6102741;23;20002;-88
2022/01/16 00:54:10;;;;;;;;;;;;;;;;;;;;;
2022/01/16 00:56:38;;;;;;;58.60;32.60;;;3.70;99.90;;;;;;6109176;23;20096;-88
2022/01/16 00:59:27;;;;;;;54.78;31.08;;;3.70;99.90;;;;;;6132262;23;20017;-88
2022/01/16 01:02:03;;;;;;;;;;;;;;;;;;;;;
2022/01/16 01:04:44;;;;;;;;;;;;;;;;;;;;;
2022/01/16 01:07:39;;;;;;;;;;;;;;;;;;;;;
2022/01/16 01:10:12;;;;;;;54.00;30.88;;;3.80;99.90;;;;;;6116810;23;20077;-88
2022/01/16 01:12:54;;;;;;;50.58;29.10;;;3.80;99.90;;;;;;6108998;23;20016;-88
2022/01/16 01:18:44;;;;;;;49.42;27.42;;;3.80;99.90;;;;;;6158021;23;19992;-88
2022/01/16 01:21:26;;;;;;;;;;;;;;;;;;;;;
2022/01/16 01:24:05;;;;;;;;;;;;;;;;;;;;;
2022/01/16 01:27:03;;;;;;;;;;;;;;;;;;;;;
2022/01/16 01:29:57;;;;;;;51.15;28.92;;;3.70;99.90;;;;;;6157250;23;20388;-88
2022/01/16 01:32:37;;;;;;;;;;;;;;;;;;;;;
2022/01/16 01:35:44;;;;;;;45.60;26.85;;;3.70;99.90;;;;;;6135098;23;20495;-87
2022/01/16 01:38:17;;;;;;;51.03;28.50;;;3.60;99.90;;;;;;6132018;23;20081;-89
2022/01/16 01:40:46;;;;;;;49.05;28.52;;;3.70;99.90;;;;;;6131771;23;19998;-88
2022/01/16 01:52:01;;;;;;;53.33;27.52;;;3.60;99.90;;;;;;6139371;23;20044;-88
2022/01/16 01:54:34;;;;;;;47.97;27.08;;;3.60;99.90;;;;;;6145257;23;20298;-88
2022/01/16 01:57:08;;;;;;;52.45;28.75;;;3.60;99.90;;;;;;6142125;23;20009;-88
2022/01/16 01:59:39;;;;;;;50.17;27.27;;;3.60;99.90;;;;;;6126071;23;20054;-89
2022/01/16 02:02:38;;;;;;;;;;;;;;;;;;;;;
2022/01/16 02:05:27;;;;;;;50.30;27.95;;;3.60;99.90;;;;;;6135064;23;20147;-88
2022/01/16 02:28:35;;;;;;;;;;;;;;;;;;;;;
2022/01/16 02:34:35;;;;;;;44.58;25.70;;;3.50;99.90;;;;;;6128361;23;20006;-88
2022/01/16 02:37:37;;;;;;;;;;;;;;;;;;;;;
2022/01/16 02:40:28;;;;;;;;;;;;;;;;;;;;;
2022/01/16 02:43:05;;;;;;;43.55;25.63;;;3.50;99.90;;;;;;6127903;23;20069;-88
2022/01/16 02:48:54;;;;;;;;;;;;;;;;;;;;;
2022/01/16 02:54:30;;;;;;;45.17;26.23;;;3.60;99.90;;;;;;6117234;23;20480;-89
2022/01/16 02:57:21;;;;;;;44.28;26.05;;;3.60;99.90;;;;;;6125738;23;20038;-88
2022/01/16 03:03:35;;;;;;;45.58;25.95;;;3.60;99.90;;;;;;6116713;23;20005;-88
2022/01/16 03:06:16;;;;;;;;;;;;;;;;;;;;;
2022/01/16 03:08:50;;;;;;;42.55;23.88;;;3.60;99.90;;;;;;6126534;23;20089;-88
2022/01/16 03:14:44;;;;;;;44.40;26.05;;;3.60;99.90;;;;;;6117258;23;20068;-88
2022/01/16 03:17:34;;;;;;;;;;;;;;;;;;;;;
2022/01/16 03:22:57;;;;;;;49.55;26.73;;;3.60;99.90;;;;;;6154002;23;20045;-87
2022/01/16 03:25:54;;;;;;;46.97;24.58;;;3.60;99.90;;;;;;6106869;23;19994;-88
2022/01/16 03:28:30;;;;;;;50.65;25.65;;;3.60;99.90;;;;;;6132227;23;20002;-88
2022/01/16 03:31:41;;;;;;;48.60;26.77;;;3.70;99.90;;;;;;6148303;23;20006;-82
2022/01/16 03:37:41;;;;;;;46.00;24.50;;;3.70;99.90;;;;;;6117100;23;20238;-88
2022/01/16 03:40:32;;;;;;;52.08;28.33;;;3.70;99.90;;;;;;6126282;23;20017;-89
2022/01/16 03:46:29;;;;;;;51.25;26.23;;;3.70;99.90;;;;;;6099654;23;20017;-88
2022/01/16 03:49:00;;;;;;;51.92;27.88;;;3.70;99.90;;;;;;6107286;23;20010;-87
2022/01/16 03:51:29;;;;;;;53.78;27.38;;;3.70;99.90;;;;;;6127047;23;20014;-88
2022/01/16 03:53:57;;;;;;;53.58;27.73;;;3.70;99.90;;;;;;6126473;23;20127;-88
2022/01/16 03:56:49;;;;;;;56.05;28.23;;;3.70;99.90;;;;;;6126601;23;20006;-89
2022/01/16 03:59:41;;;;;;;;;;;;;;;;;;;;;
2022/01/16 04:02:11;;;;;;;53.08;25.85;;;3.80;99.90;;;;;;6127420;23;20074;-88
2022/01/16 04:04:56;;;;;;;51.70;26.73;;;3.80;99.90;;;;;;6101454;23;20521;-88
2022/01/16 04:07:44;;;;;;;53.70;27.10;;;3.80;99.90;;;;;;6125547;23;20421;-88
2022/01/16 04:10:48;;;;;;;54.60;27.45;;;3.80;99.90;;;;;;6126449;23;20060;-88
2022/01/16 04:14:05;;;;;;;;;;;;;;;;;;;;;
2022/01/16 04:16:37;;;;;;;57.63;28.65;;;3.90;99.90;;;;;;6126165;23;20089;-88
2022/01/16 04:19:53;;;;;;;;;;;;;;;;;;;;;
2022/01/16 04:31:41;;;;;;;53.22;29.27;;;3.90;99.90;;;;;;6117862;23;20045;-88
2022/01/16 04:37:22;;;;;;;51.70;28.25;;;3.90;99.90;;;;;;6121721;23;20010;-88
2022/01/16 04:40:10;;;;;;;51.53;29.17;;;3.90;99.90;;;;;;6128286;23;20096;-88
2022/01/16 04:49:59;;;;;;;50.67;29.02;;;3.90;99.90;;;;;;6078807;23;20021;-88
2022/01/16 04:53:11;;;;;;;51.88;29.80;;;3.90;99.90;;;;;;6133880;23;20013;-88
2022/01/16 04:55:53;;;;;;;51.88;30.13;;;4.00;99.90;;;;;;6121249;23;20078;-88
2022/01/16 05:01:26;;;;;;;51.05;28.63;;;4.00;99.90;;;;;;6117680;23;20002;-88
2022/01/16 05:04:38;;;;;;;;;;;;;;;;;;;;;
2022/01/16 05:07:17;;;;;;;54.83;31.42;;;4.00;99.90;;;;;;6128259;23;20081;-88
2022/01/16 05:09:46;;;;;;;52.80;29.63;;;4.00;99.90;;;;;;6127306;23;20037;-88
2022/01/16 05:12:35;;;;;;;58.00;31.00;;;4.00;99.90;;;;;;6127288;23;20013;-89
2022/01/16 05:18:17;;;;;;;53.03;30.38;;;4.00;99.90;;;;;;6127065;23;20067;-88
2022/01/16 05:20:55;;;;;;;52.53;29.45;;;4.00;99.90;;;;;;6103815;23;20093;-91
2022/01/16 05:23:42;;;;;;;53.75;30.10;;;4.00;99.90;;;;;;6127270;23;19998;-89
2022/01/16 05:29:36;;;;;;;55.63;31.02;;;4.10;99.90;;;;;;6122798;23;20014;-88
2022/01/16 05:32:35;;;;;;;;;;;;;;;;;;;;;
2022/01/16 05:35:58;;;;;;;;;;;;;;;;;;;;;
2022/01/16 05:38:32;;;;;;;58.47;32.58;;;4.10;99.90;;;;;;6117518;23;20006;-89
2022/01/16 05:41:22;;;;;;;;;;;;;;;;;;;;;
2022/01/16 05:44:07;;;;;;;63.17;34.38;;;4.10;99.90;;;;;;6127942;23;20080;-88
2022/01/16 05:46:47;;;;;;;63.03;33.80;;;4.10;99.90;;;;;;6108380;23;20010;-88
2022/01/16 05:49:23;;;;;;;58.25;34.53;;;4.10;99.90;;;;;;6126759;23;20005;-89
2022/01/16 05:52:18;;;;;;;56.47;32.78;;;4.10;99.90;;;;;;6102318;23;20045;-88
2022/01/16 05:55:22;;;;;;;64.05;34.40;;;4.10;99.90;;;;;;6127150;23;20010;-89
2022/01/16 05:58:01;;;;;;;62.63;34.90;;;4.10;99.90;;;;;;6126586;23;20021;-89
2022/01/16 06:00:38;;;;;;;59.53;33.50;;;4.20;99.90;;;;;;6126685;23;20512;-89
2022/01/16 06:03:50;;;;;;;62.45;34.22;;;4.20;99.90;;;;;;6128637;23;20006;-88
2022/01/16 06:09:46;;;;;;;68.57;35.70;;;4.10;99.90;;;;;;6091806;23;20045;-89
2022/01/16 06:15:46;;;;;;;64.22;35.85;;;4.10;99.90;;;;;;6151873;23;19994;-88
2022/01/16 06:18:37;;;;;;;56.63;33.08;;;4.10;99.90;;;;;;6178295;23;19990;-90
2022/01/16 06:21:24;;;;;;;62.10;34.92;;;4.20;99.90;;;;;;6152982;23;19993;-88
2022/01/16 06:23:57;;;;;;;64.28;36.25;;;4.20;99.90;;;;;;6106328;23;20002;-90
2022/01/16 06:26:35;;;;;;;67.78;36.03;;;4.20;99.90;;;;;;6079903;23;20010;-88
2022/01/16 06:31:59;;;;;;;66.93;38.45;;;4.20;99.90;;;;;;6127915;23;20455;-88
2022/01/16 06:34:27;;;;;;;66.18;37.58;;;4.20;99.90;;;;;;6100974;23;20049;-88
2022/01/16 06:37:22;;;;;;;65.07;39.17;;;4.20;99.90;;;;;;6125822;23;20409;-88
2022/01/16 06:42:59;;;;;;;67.75;38.95;;;4.20;99.90;;;;;;6128248;23;20468;-88
2022/01/16 06:45:54;;;;;;;;;;;;;;;;;;;;;
2022/01/16 06:48:45;;;;;;;66.57;37.97;;;4.20;99.90;;;;;;6117861;23;20018;-88
2022/01/16 06:51:50;;;;;;;63.88;36.13;;;4.20;99.90;;;;;;6126399;23;20429;-88
2022/01/16 06:54:23;;;;;;;63.20;36.80;;;4.20;99.90;;;;;;6126177;23;20014;-88
2022/01/16 06:56:51;;;;;;;65.78;37.72;;;4.20;99.90;;;;;;6131030;23;20013;-88
2022/01/16 06:59:45;;;;;;;63.55;36.65;;;4.20;99.90;;;;;;6130538;23;20001;-88
2022/01/16 07:02:29;;;;;;;;;;;;;;;;;;;;;
2022/01/16 07:05:21;;;;;;;62.88;36.85;;;4.30;99.90;;;;;;6156470;23;20479;-89
2022/01/16 07:07:59;;;;;;;;;;;;;;;;;;;;;
2022/01/16 07:10:52;;;;;;;57.35;35.00;;;4.20;99.90;;;;;;6157135;23;20084;-88
2022/01/16 07:13:23;;;;;;;58.58;34.47;;;4.20;99.90;;;;;;6155493;23;20029;-88
2022/01/16 07:16:05;;;;;;;60.58;36.10;;;4.20;99.90;;;;;;6132934;23;20009;-88
2022/01/16 07:18:38;;;;;;;;;;;4.30;99.90;;;;;;6132390;23;20002;-88
2022/01/16 07:24:16;;;;;;;54.67;32.45;;;4.20;99.90;;;;;;6138239;23;20387;-87
2022/01/16 07:27:02;;;;;;;57.40;35.38;;;4.20;99.90;;;;;;6131726;23;20395;-88
2022/01/16 07:29:58;;;;;;;57.75;35.03;;;4.30;99.90;;;;;;6132734;23;20002;-88
2022/01/16 07:32:27;;;;;;;62.22;37.58;;;4.30;99.90;;;;;;6132823;23;19998;-87
2022/01/16 07:35:15;;;;;;;52.63;34.22;;;4.30;99.90;;;;;;6134802;23;20090;-88
2022/01/16 07:37:51;;;;;;;55.60;34.47;;;4.30;99.90;;;;;;6156727;23;19990;-88
2022/01/16 07:40:35;;;;;;;54.03;33.85;;;4.30;99.90;;;;;;6133678;23;20002;-88
2022/01/16 07:43:17;;;;;;;;;;;;;;;;;;;;;
2022/01/16 07:46:04;;;;;;;50.90;33.80;;;4.40;99.90;;;;;;6178847;23;20306;-85
2022/01/16 07:48:39;;;;;;;52.30;33.75;;;4.40;99.90;;;;;;6140894;23;20009;-87
2022/01/16 07:51:37;;;;;;;;;;;;;;;;;;;;;
2022/01/16 07:54:23;;;;;;;50.53;32.45;;;4.40;99.90;;;;;;6159602;23;20080;-87
2022/01/16 07:57:15;;;;;;;;;;;;;;;;;;;;;
2022/01/16 07:59:52;;;;;;;49.58;31.52;;;4.40;99.90;;;;;;6129252;23;20102;-87
2022/01/16 08:02:21;;;;;;;46.92;30.98;;;4.50;99.90;;;;;;6081022;23;20041;-88
2022/01/16 08:05:06;;;;;;;47.67;30.80;;;4.50;99.90;;;;;;6103600;23;20006;-88
2022/01/16 08:08:01;;;;;;;44.42;29.33;;;4.50;99.90;;;;;;6103199;23;20048;-87
2022/01/16 08:10:40;;;;;;;48.58;31.13;;;4.50;99.90;;;;;;6080249;23;20013;-88
2022/01/16 08:13:11;;;;;;;43.88;29.27;;;4.60;99.90;;;;;;6103534;23;20006;-88
2022/01/16 08:15:57;;;;;;;;;;;;;;;;;;;;;
2022/01/16 08:18:36;;;;;;;41.15;26.98;;;4.60;99.90;;;;;;6128734;23;19980;-88
2022/01/16 08:21:13;;;;;;;42.75;29.15;;;4.60;99.90;;;;;;6103252;23;20013;-88
2022/01/16 08:23:51;;;;;;;;;;;;;;;;;;;;;
2022/01/16 08:26:38;;;;;;;;;;;;;;;;;;;;;
2022/01/16 08:29:29;;;;;;;43.03;29.55;;;4.60;99.90;;;;;;6084518;23;20089;-89
2022/01/16 08:32:29;;;;;;;42.35;27.70;;;4.70;99.90;;;;;;6079775;23;20034;-88
2022/01/16 08:35:00;;;;;;;42.33;28.35;;;4.70;99.90;;;;;;6073468;23;20010;-88
2022/01/16 08:37:48;;;;;;;;;;;4.70;99.90;;;;;;6103485;23;20021;-87
2022/01/16 08:40:24;;;;;;;43.03;27.15;;;4.80;99.90;;;;;;6126563;23;19908;-87
2022/01/16 08:43:16;;;;;;;38.17;25.92;;;4.80;99.90;;;;;;6082007;23;20070;-87
2022/01/16 08:45:50;;;;;;;40.38;27.23;;;4.80;99.90;;;;;;6103628;23;20001;-89
2022/01/16 08:48:41;;;;;;;44.80;30.15;;;4.80;99.90;;;;;;6104499;23;20006;-88
2022/01/16 08:51:16;;;;;;;;;;;4.90;99.90;;;;;;6079615;23;20010;-88
2022/01/16 08:54:02;;;;;;;40.92;25.90;;;4.90;99.90;;;;;;6103591;23;19979;-88
2022/01/16 09:00:31;;;;;;;42.00;26.95;;;4.90;99.90;;;;;;6156831;23;20045;-88
2022/01/16 09:03:41;;;;;;;;;;;;;;;;;;;;;
2022/01/16 09:06:27;;;;;;;;;;;;;;;;;;;;;
2022/01/16 09:09:43;;;;;;;;;;;;;;;;;;;;;
2022/01/16 09:12:42;;;;;;;;;;;;;;;;;;;;;
2022/01/16 09:19:17;;;;;;;37.40;24.92;;;5.10;99.90;;;;;;6143762;23;20016;-89
2022/01/16 09:25:20;;;;;;;;;;;;;;;;;;;;;
2022/01/16 09:28:31;;;;;;;;;;;;;;;;;;;;;
2022/01/16 09:31:53;;;;;;;;;;;;;;;;;;;;;
2022/01/16 09:34:26;;;;;;;39.72;25.25;;;5.30;99.90;;;;;;6152392;23;20072;-90
2022/01/16 09:37:04;;;;;;;40.30;27.45;;;5.30;99.90;;;;;;6133657;23;20409;-91
2022/01/16 09:39:59;;;;;;;;;;;;;;;;;;;;;
2022/01/16 09:42:31;;;;;;;37.28;25.52;;;5.30;99.90;;;;;;6138506;23;20081;-90
2022/01/16 09:45:31;;;;;;;41.88;26.67;;;5.40;99.90;;;;;;6109644;23;20487;-89
2022/01/16 09:48:20;;;;;;;43.80;25.88;;;5.40;99.90;;;;;;6112679;23;20017;-90
2022/01/16 09:51:20;;;;;;;38.58;25.05;;;5.40;99.90;;;;;;6061668;23;20624;-90
2022/01/16 09:54:15;;;;;;;;;;;;;;;;;;;;;
2022/01/16 09:57:08;;;;;;;40.83;26.17;;;5.50;99.90;;;;;;6158600;23;20396;-89
2022/01/16 09:59:38;;;;;;;;;;;5.60;99.90;;;;;;6157927;23;20041;-89
2022/01/16 10:02:35;;;;;;;37.70;23.47;;;5.60;99.90;;;;;;6131170;23;19905;-87
2022/01/16 10:05:23;;;;;;;44.25;26.77;;;5.60;99.90;;;;;;6109706;23;20249;-89
2022/01/16 10:08:28;;;;;;;46.70;27.98;;;5.60;99.90;;;;;;6133208;23;20033;-90
2022/01/16 10:11:36;;;;;;;45.95;28.58;;;5.60;99.90;;;;;;6132800;23;20040;-89
2022/01/16 10:14:22;;;;;;;45.47;26.83;;;5.60;99.90;;;;;;6075441;23;20010;-90
2022/01/16 10:19:49;;;;;;;;;;;;;;;;;;;;;
2022/01/16 10:22:48;;;;;;;;;;;;;;;;;;;;;
2022/01/16 10:25:44;;;;;;;49.05;31.42;;;5.70;99.90;;;;;;6158780;23;20547;-89
2022/01/16 10:32:31;;;;;;;;;;;;;;;;;;;;;
2022/01/16 10:38:18;;;;;;;;;;;;;;;;;;;;;
2022/01/16 10:55:06;;;;;;;;;;;;;;;;;;;;;
2022/01/16 10:57:50;;;;;;;;;;;;;;;;;;;;;
2022/01/16 11:01:04;;;;;;;;;;;;;;;;;;;;;
2022/01/16 11:04:03;;;;;;;61.25;33.97;;;5.80;99.90;;;;;;6010165;23;20059;-91
2022/01/16 11:07:34;;;;;;;;;;;;;;;;;;;;;
2022/01/16 11:11:00;;;;;;;63.28;37.22;;;5.90;99.90;;;;;;6128255;23;20129;-91
2022/01/16 11:14:00;;;;;;;;;;;;;;;;;;;;;
2022/01/16 11:16:45;;;;;;;66.30;37.25;;;5.90;99.90;;;;;;6127587;23;20401;-90
2022/01/16 11:19:31;;;;;;;;;;;;;;;;;;;;;
2022/01/16 11:22:33;;;;;;;;;;;;;;;;;;;;;
2022/01/16 11:28:13;;;;;;;70.00;38.88;;;5.90;99.90;;;;;;6095647;23;20022;-93
2022/01/16 11:34:43;;;;;;;;;;;;;;;;;;;;;
2022/01/16 11:37:21;;;;;;;69.45;39.03;;;6.00;99.90;;;;;;6127751;23;20089;-91
2022/01/16 11:41:15;;;;;;;69.50;39.63;;;5.90;99.90;;;;;;6101946;23;20002;-91
2022/01/16 11:47:31;;;;;;;74.63;40.08;;;6.00;99.90;;;;;;5999928;23;20016;-93
2022/01/16 11:50:52;;;;;;;75.10;39.10;;;6.00;99.90;;;;;;5994325;23;20023;-91
2022/01/16 11:56:41;;;;;;;78.35;39.92;;;6.00;99.90;;;;;;6128604;23;20010;-91
2022/01/16 12:02:17;;;;;;;78.25;40.70;;;6.00;99.90;;;;;;6172116;23;20013;-90
2022/01/16 12:07:58;;;;;;;78.93;40.95;;;6.00;99.90;;;;;;6183063;23;20109;-90
2022/01/16 12:10:59;;;;;;;78.25;38.85;;;6.00;99.90;;;;;;6157407;23;20005;-89
2022/01/16 12:14:11;;;;;;;75.53;38.42;;;6.00;99.90;;;;;;6150706;23;20029;-89
2022/01/16 12:16:48;;;;;;;;;;;6.00;99.90;;;;;;6132241;23;20052;-90
2022/01/16 12:19:54;;;;;;;74.10;37.45;;;6.00;99.90;;;;;;6130892;23;19907;-89
2022/01/16 12:29:01;;;;;;;68.50;37.42;;;6.10;99.90;;;;;;6156981;23;20008;-90
2022/01/16 12:32:01;;;;;;;76.95;38.17;;;6.10;99.90;;;;;;6131218;23;20084;-90
2022/01/16 12:34:59;;;;;;;77.05;36.80;;;6.10;99.90;;;;;;6154978;23;20335;-91
2022/01/16 12:52:42;;;;;;;;;;;;;;;;;;;;;
2022/01/16 12:55:57;;;;;;;;;;;;;;;;;;;;;
2022/01/16 12:59:01;;;;;;;;;;;;;;;;;;;;;
2022/01/16 13:01:57;;;;;;;;;;;;;;;;;;;;;
2022/01/16 13:04:48;;;;;;;;;;;;;;;;;;;;;
2022/01/16 13:10:50;;;;;;;;;;;6.50;99.90;;;;;;6159020;23;20055;-90
2022/01/16 13:13:55;;;;;;;86.00;40.08;;;6.50;99.90;;;;;;6132223;23;20350;-90
2022/01/16 13:23:16;;;;;;;76.07;40.38;;;6.60;99.90;;;;;;6158786;23;20008;-90
2022/01/16 13:26:23;;;;;;;72.30;36.58;;;6.60;99.90;;;;;;6159226;23;20029;-89
2022/01/16 13:29:26;;;;;;;79.63;39.97;;;6.70;99.90;;;;;;6135916;23;20056;-90
2022/01/16 13:32:20;;;;;;;;;;;;;;;;;;;;;
2022/01/16 13:35:42;;;;;;;78.30;40.00;;;6.70;99.90;;;;;;6161522;23;19997;-91
2022/01/16 13:38:31;;;;;;;80.93;40.08;;;6.70;99.90;;;;;;6162160;23;20009;-87
2022/01/16 13:41:32;;;;;;;;;;;;;;;;;;;;;
2022/01/16 13:57:54;;;;;;;69.85;36.70;;;6.80;99.90;;;;;;5974946;23;20082;-90
2022/01/16 14:01:20;;;;;;;73.45;39.08;;;6.80;99.90;;;;;;6138742;23;20084;-89
2022/01/16 14:14:01;;;;;;;;;;;;;;;;;;;;;
2022/01/16 14:17:14;;;;;;;66.97;35.28;;;6.80;99.90;;;;;;6010646;23;20091;-91
2022/01/16 14:23:57;;;;;;;;;;;;;;;;;;;;;
2022/01/16 14:27:01;;;;;;;65.25;35.47;;;6.80;99.90;;;;;;6150442;23;20338;-89
2022/01/16 14:29:45;;;;;;;;;;;;;;;;;;;;;
2022/01/16 14:39:24;;;;;;;;;;;;;;;;;;;;;
2022/01/16 14:42:41;;;;;;;;;;;;;;;;;;;;;
2022/01/16 14:45:26;;;;;;;60.90;34.35;;;6.80;99.90;;;;;;6133660;23;20398;-88
2022/01/16 14:48:09;;;;;;;57.90;33.85;;;6.80;99.90;;;;;;6084816;23;20428;-88
2022/01/16 14:56:48;;;;;;;52.10;30.75;;;6.80;99.90;;;;;;6159193;23;20092;-88
2022/01/16 14:59:35;;;;;;;;;;;;;;;;;;;;;
2022/01/16 15:02:44;;;;;;;47.40;28.27;;;6.80;99.90;;;;;;6141302;23;20018;-91
2022/01/16 15:05:19;;;;;;;48.38;30.15;;;6.80;99.90;;;;;;6128797;23;19993;-89
2022/01/16 15:11:26;;;;;;;;;;;;;;;;;;;;;
2022/01/16 15:14:20;;;;;;;51.07;28.57;;;6.80;99.90;;;;;;6131833;23;20029;-88
2022/01/16 15:17:20;;;;;;;47.38;28.88;;;6.80;99.90;;;;;;6102224;23;20013;-90
2022/01/16 15:20:32;;;;;;;46.58;26.80;;;6.80;99.90;;;;;;6099221;23;20135;-88
2022/01/16 15:23:38;;;;;;;;;;;;;;;;;;;;;
2022/01/16 15:26:12;;;;;;;42.33;27.33;;;6.80;99.90;;;;;;6105866;23;20093;-89
2022/01/16 15:32:40;;;;;;;;;;;;;;;;;;;;;
2022/01/16 15:35:39;;;;;;;;;;;;;;;;;;;;;
2022/01/16 15:41:55;;;;;;;45.63;28.50;;;6.80;99.90;;;;;;6111293;23;20037;-89
2022/01/16 15:44:31;;;;;;;;;;;;;;;;;;;;;
2022/01/16 15:51:10;;;;;;;48.72;30.38;;;6.80;99.90;;;;;;6111351;23;20006;-87
2022/01/16 15:54:22;;;;;;;44.17;27.58;;;6.80;99.90;;;;;;6071400;23;20385;-89
2022/01/16 15:57:05;;;;;;;44.03;28.73;;;6.80;99.90;;;;;;6119373;23;20037;-88
2022/01/16 16:00:08;;;;;;;;;;;;;;;;;;;;;
2022/01/16 16:15:42;;;;;;;53.00;32.10;;;6.80;99.90;;;;;;6037619;23;20012;-89
2022/01/16 16:18:18;;;;;;;48.03;30.30;;;6.80;99.90;;;;;;6109147;23;20435;-88
2022/01/16 16:20:57;;;;;;;56.20;32.58;;;6.70;99.90;;;;;;6133342;23;20013;-88
2022/01/16 16:23:25;;;;;;;49.83;30.52;;;6.80;99.90;;;;;;6109810;23;20017;-88
2022/01/16 16:26:00;;;;;;;55.65;33.20;;;6.80;99.90;;;;;;6133145;23;20029;-88
2022/01/16 16:31:49;;;;;;;54.25;32.33;;;6.70;99.90;;;;;;6130376;23;20064;-90
2022/01/16 16:34:35;;;;;;;54.25;33.50;;;6.80;99.90;;;;;;6158022;23;19998;-94
2022/01/16 16:37:42;;;;;;;;;;;;;;;;;;;;;
2022/01/16 16:44:30;;;;;;;59.13;33.45;;;6.70;99.90;;;;;;6113744;23;20006;-91
2022/01/16 16:47:24;;;;;;;;;;;;;;;;;;;;;
2022/01/16 16:50:02;;;;;;;63.20;33.42;;;6.70;99.90;;;;;;6158812;23;19975;-90
2022/01/16 16:52:54;;;;;;;;;;;;;;;;;;;;;
2022/01/16 16:58:56;;;;;;;59.47;33.47;;;6.70;99.90;;;;;;6097723;23;20093;-91
2022/01/16 17:01:56;;;;;;;66.57;34.88;;;6.70;99.90;;;;;;6049264;23;20026;-90
2022/01/16 17:05:26;;;;;;;;;;;;;;;;;;;;;
2022/01/16 17:11:18;;;;;;;67.70;35.75;;;6.80;99.90;;;;;;5970139;24;20008;-90
2022/01/16 17:14:43;;;;;;;;;;;;;;;;;;;;;
2022/01/16 17:31:33;;;;;;;;;;;;;;;;;;;;;
2022/01/16 17:34:23;;;;;;;;;;;;;;;;;;;;;
2022/01/16 17:37:26;;;;;;;79.40;41.58;;;6.80;99.90;;;;;;5990138;23;20095;-90
2022/01/16 17:40:29;;;;;;;74.70;39.08;;;6.80;99.90;;;;;;6011257;23;20004;-90
2022/01/16 17:43:36;;;;;;;;;;;;;;;;;;;;;
2022/01/16 17:46:15;;;;;;;75.22;40.92;;;6.80;99.90;;;;;;6096816;23;20090;-91
2022/01/16 17:49:40;;;;;;;;;;;;;;;;;;;;;
2022/01/16 17:52:48;;;;;;;72.70;39.25;;;6.80;99.90;;;;;;6157677;23;20084;-91
2022/01/16 17:55:27;;;;;;;;;;;;;;;;;;;;;
2022/01/16 17:58:57;;;;;;;;;;;;;;;;;;;;;
2022/01/16 18:01:55;;;;;;;67.32;37.47;;;6.90;99.90;;;;;;6038401;23;20118;-91
2022/01/16 18:05:20;;;;;;;;;;;;;;;;;;;;;
2022/01/16 18:08:02;;;;;;;;;;;;;;;;;;;;;
2022/01/16 18:14:10;;;;;;;64.47;35.55;;;6.90;99.90;;;;;;6033675;23;20007;-90
2022/01/16 18:20:26;;;;;;;;;;;;;;;;;;;;;
2022/01/16 18:26:36;;;;;;;60.90;36.30;;;7.00;99.90;;;;;;5980443;24;20551;-91
2022/01/16 18:29:58;;;;;;;;;;;;;;;;;;;;;
2022/01/16 18:32:54;;;;;;;;;;;;;;;;;;;;;
2022/01/16 18:42:47;;;;;;;;;;;;;;;;;;;;;
2022/01/16 18:46:01;;;;;;;58.88;35.00;;;6.90;99.90;;;;;;5967255;23;20395;-90
2022/01/16 18:49:03;;;;;;;68.40;37.15;;;6.90;99.90;;;;;;5925706;24;20024;-89
2022/01/16 18:52:35;;;;;;;;;;;;;;;;;;;;;
2022/01/16 18:56:05;;;;;;;63.25;35.38;;;6.90;99.90;;;;;;5824718;24;20082;-90
2022/01/16 19:09:29;;;;;;;;;;;;;;;;;;;;;
2022/01/16 19:22:39;;;;;;;58.35;34.90;;;6.90;99.90;;;;;;5856425;24;20004;-90
2022/01/16 19:25:29;;;;;;;58.10;32.67;;;7.00;99.90;;;;;;5959411;24;20035;-90
2022/01/16 19:28:37;;;;;;;;;;;;;;;;;;;;;
2022/01/16 19:39:10;;;;;;;;;;;;;;;;;;;;;
2022/01/16 19:41:58;;;;;;;;;;;;;;;;;;;;;
2022/01/16 19:48:14;;;;;;;50.25;29.75;;;7.00;99.90;;;;;;5779351;24;20077;-91
2022/01/16 19:51:23;;;;;;;;;;;;;;;;;;;;;
2022/01/16 19:54:32;;;;;;;;;;;;;;;;;;;;;
2022/01/16 20:01:12;;;;;;;;;;;;;;;;;;;;;
2022/01/16 20:04:21;;;;;;;;;;;;;;;;;;;;;
2022/01/16 20:59:12;;;;;;;39.72;23.15;;;7.10;99.90;;;;;;5887730;24;20024;-93
2022/01/16 21:02:20;;;;;;;;;;;;;;;;;;;;;
2022/01/16 21:05:20;;;;;;;;;;;;;;;;;;;;;
2022/01/16 21:08:19;;;;;;;;;;;;;;;;;;;;;
2022/01/16 21:21:05;;;;;;;;;;;;;;;;;;;;;
2022/01/16 21:27:11;;;;;;;;;;;;;;;;;;;;;
2022/01/16 21:29:53;;;;;;;33.35;21.00;;;7.20;99.90;;;;;;6018128;23;20094;-89
2022/01/16 21:32:52;;;;;;;29.67;19.63;;;7.20;99.90;;;;;;6015128;23;20059;-88
2022/01/16 21:36:01;;;;;;;;;;;;;;;;;;;;;
2022/01/16 21:39:00;;;;;;;;;;;;;;;;;;;;;
2022/01/16 21:42:26;;;;;;;;;;;;;;;;;;;;;
2022/01/16 21:51:40;;;;;;;33.92;19.15;;;7.30;99.90;;;;;;6090525;23;20006;-90
2022/01/16 21:59:02;;;;;;;;;;;;;;;;;;;;;
2022/01/16 22:04:41;;;;;;;32.45;17.95;;;7.30;99.90;;;;;;6007915;23;20379;-90
2022/01/16 22:10:53;;;;;;;25.65;16.58;;;7.30;99.90;;;;;;6000036;23;20047;-89
2022/01/16 22:13:27;;;;;;;27.98;17.33;;;7.30;99.90;;;;;;5987422;23;20020;-89
2022/01/16 22:16:15;;;;;;;;;;;;;;;;;;;;;
2022/01/16 22:19:21;;;;;;;;;;;;;;;;;;;;;
2022/01/16 22:22:28;;;;;;;;;;;;;;;;;;;;;
2022/01/16 22:25:30;;;;;;;25.95;17.48;;;7.40;99.90;;;;;;5982825;24;20092;-90
2022/01/16 22:28:38;;;;;;;;;;;;;;;;;;;;;
2022/01/16 22:31:34;;;;;;;;;;;;;;;;;;;;;
2022/01/16 22:34:23;;;;;;;27.10;16.77;;;7.40;99.90;;;;;;6113903;23;20076;-89
2022/01/16 22:37:39;;;;;;;;;;;;;;;;;;;;;
2022/01/16 22:40:18;;;;;;;;;;;;;;;;;;;;;
2022/01/16 22:43:19;;;;;;;26.95;15.05;;;7.40;99.90;;;;;;6131969;23;20006;-89
2022/01/16 22:46:13;;;;;;;25.63;14.15;;;7.40;99.90;;;;;;6111903;23;20002;-89
2022/01/16 22:49:01;;;;;;;;;;;;;;;;;;;;;
2022/01/16 22:51:47;;;;;;;28.13;15.77;;;7.40;99.90;;;;;;6106570;23;20088;-89
2022/01/16 22:58:14;;;;;;;;;;;;;;;;;;;;;
2022/01/16 23:01:24;;;;;;;21.88;11.93;;;7.40;99.90;;;;;;6035320;23;20387;-90
2022/01/16 23:13:47;;;;;;;17.35;10.43;;;7.40;99.90;;;;;;6127230;23;20025;-89
2022/01/16 23:16:40;;;;;;;;;;;;;;;;;;;;;
2022/01/16 23:19:26;;;;;;;15.88;8.93;;;7.40;99.90;;;;;;6127697;23;20073;-89
2022/01/16 23:22:22;;;;;;;;;;;;;;;;;;;;;
2022/01/16 23:25:12;;;;;;;15.73;8.98;;;7.40;99.90;;;;;;6127060;23;20081;-89
2022/01/16 23:28:04;;;;;;;22.50;10.63;;;7.40;99.90;;;;;;6102466;23;20010;-90
2022/01/16 23:31:06;;;;;;;20.10;9.02;;;7.40;99.90;;;;;;6061313;23;20037;-89
2022/01/16 23:33:59;;;;;;;16.90;9.15;;;7.40;99.90;;;;;;6066596;23;20009;-90
2022/01/16 23:43:45;;;;;;;18.50;9.15;;;7.40;99.90;;;;;;5994924;23;20047;-90
2022/01/16 23:57:34;;;;;;;19.55;12.75;;;7.40;99.90;;;;;;6039418;23;20104;-89
